KMYF

Montgomery-Gibbs Executive Airport

San Diego, California, USA
METAR KMYF 172353Z 30009KT 10SM CLR 24/03 A2999 RMK AO2 SLP151 T02390028 10267 20239 56005
Observed Flight Rules
Oct-17 @ 23:53 UTC (50 minutes ago) Visual Flight Rules
Wind Visibility Clouds
300° at 9 knots 10 miles
  • Clear skies
Temperatures Readings
Current 24°C / 75°F
Dewpoint 3°C / 37°F
Humidity 25%
Altimeter 29.99" Hg
Pressure 1015.1 hPa
Elevation 136
METAR KMYF 172353Z 30009KT 10SM CLR 24/03 A2999 RMK AO2 SLP151 T02390028 10267 20239 56005
Observed Flight Rules
Oct-17 @ 23:53 UTC
(50 minutes ago)
VFR
Wind Visibility
300° at 9 knots 10 miles
Clouds
  • Clear skies
Temperature Dewpoint
24°C / 75°F 3°C / 37°F
Humidity Altimeter Pressure
25% 29.99" Hg 1015.1 hPa